createdAt,value
2022-10-26T00:07:01.216Z,40.50
2022-10-26T00:17:07.534Z,42.00
2022-10-26T00:27:13.794Z,40.40
2022-10-26T00:37:20.084Z,33.10
2022-10-26T00:47:35.379Z,31.70
2022-10-26T00:57:41.827Z,28.20
2022-10-26T01:07:48.805Z,25.60
2022-10-26T01:17:57.919Z,29.40
2022-10-26T01:28:12.800Z,28.20
2022-10-26T01:38:31.298Z,29.40
2022-10-26T01:48:38.430Z,29.40
2022-10-26T01:58:57.826Z,27.00
2022-10-26T02:09:09.324Z,27.80
2022-10-26T02:19:28.941Z,30.10
2022-10-26T02:29:36.407Z,26.90
2022-10-26T02:39:43.138Z,27.80
2022-10-26T02:49:49.383Z,27.50
2022-10-26T02:59:56.152Z,27.40
2022-10-26T03:10:02.448Z,30.20
2022-10-26T03:20:09.579Z,30.50
2022-10-26T03:30:15.850Z,29.10
2022-10-26T03:40:22.095Z,28.30
2022-10-26T03:50:28.351Z,27.20
2022-10-26T04:00:34.624Z,34.90
2022-10-26T04:10:40.916Z,33.30
2022-10-26T04:20:47.250Z,30.70
2022-10-26T04:30:53.519Z,29.90
2022-10-26T04:40:59.791Z,27.70
2022-10-26T04:51:06.036Z,26.00
2022-10-26T05:01:12.486Z,26.50
2022-10-26T05:11:18.867Z,25.30
2022-10-26T05:21:25.161Z,25.50
2022-10-26T05:31:31.484Z,31.10
2022-10-26T05:41:37.747Z,23.10
2022-10-26T05:51:44.007Z,28.70
2022-10-26T06:01:59.133Z,30.50
2022-10-26T06:12:06.023Z,32.40
2022-10-26T06:22:40.673Z,32.60
2022-10-26T06:32:47.227Z,31.35
2022-10-26T06:42:53.795Z,32.20
2022-10-26T06:53:24.829Z,29.60
2022-10-26T07:03:31.138Z,28.10
2022-10-26T07:13:37.425Z,23.50
2022-10-26T07:23:43.708Z,21.10
2022-10-26T07:33:49.978Z,18.30
2022-10-26T07:43:56.247Z,14.40
2022-10-26T07:54:02.562Z,12.00
2022-10-26T08:04:08.827Z,10.50
2022-10-26T08:14:15.217Z,10.70
2022-10-26T08:24:21.474Z,8.40
2022-10-26T08:34:27.748Z,9.00
2022-10-26T08:44:41.690Z,8.80
2022-10-26T08:54:53.712Z,7.90
2022-10-26T09:05:00.923Z,8.00
2022-10-26T09:15:07.138Z,8.30
2022-10-26T09:25:24.994Z,9.00
2022-10-26T09:35:42.722Z,9.00
2022-10-26T09:45:54.505Z,7.80
2022-10-26T09:56:20.992Z,6.10
2022-10-26T10:06:28.624Z,7.10
2022-10-26T10:16:34.874Z,5.30
2022-10-26T10:26:57.596Z,5.00
2022-10-26T10:37:03.909Z,5.90
2022-10-26T10:47:20.053Z,5.80
2022-10-26T10:57:41.895Z,4.80
2022-10-26T11:08:03.772Z,4.80
2022-10-26T11:18:15.676Z,3.80
2022-10-26T11:28:50.606Z,4.00
2022-10-26T11:39:16.115Z,3.50
2022-10-26T11:49:41.038Z,4.00
2022-10-26T11:59:51.930Z,3.70
2022-10-26T12:09:59.007Z,3.80
2022-10-26T12:20:11.967Z,4.60
2022-10-26T12:30:21.170Z,4.00
2022-10-26T12:40:42.934Z,4.10
2022-10-26T12:50:49.230Z,4.00
2022-10-26T13:01:01.343Z,3.70
2022-10-26T13:11:15.319Z,3.20
2022-10-26T13:21:22.921Z,3.90
2022-10-26T13:31:35.540Z,3.80
2022-10-26T13:41:44.862Z,3.60
2022-10-26T13:51:52.715Z,3.50
2022-10-26T14:02:23.785Z,3.10
2022-10-26T14:12:31.876Z,4.20
2022-10-26T14:22:38.160Z,3.80
2022-10-26T14:32:44.468Z,3.90
2022-10-26T14:42:53.105Z,4.30
2022-10-26T14:53:04.257Z,3.90
2022-10-26T15:03:17.269Z,5.70
2022-10-26T15:13:30.598Z,7.50
2022-10-26T15:23:39.600Z,6.30
2022-10-26T15:34:05.775Z,12.40
2022-10-26T15:44:17.287Z,18.90
2022-10-26T15:54:23.585Z,12.20
2022-10-26T16:04:28.828Z,17.10
2022-10-26T16:14:53.392Z,10.80
2022-10-26T16:25:01.347Z,36.00
2022-10-26T16:35:07.770Z,24.80
2022-10-26T16:45:15.202Z,23.00
2022-10-26T16:55:25.607Z,18.40
2022-10-26T17:05:31.898Z,20.70
2022-10-26T17:15:38.154Z,20.90
2022-10-26T17:25:45.182Z,26.10
2022-10-26T17:35:54.435Z,22.50
2022-10-26T17:46:01.955Z,18.30
2022-10-26T17:56:10.857Z,19.50
2022-10-26T18:06:18.438Z,19.40
2022-10-26T18:16:26.203Z,21.50
2022-10-26T18:26:32.831Z,19.00
2022-10-26T18:36:39.139Z,31.10
2022-10-26T18:46:48.941Z,32.50
2022-10-26T18:56:55.296Z,32.90
2022-10-26T19:07:03.339Z,28.10
2022-10-26T19:17:10.232Z,25.60
2022-10-26T19:37:27.428Z,22.40
2022-10-26T19:47:34.636Z,39.40
2022-10-26T19:57:41.942Z,40.10
2022-10-26T20:07:48.196Z,38.10
2022-10-26T20:17:54.481Z,38.00
2022-10-26T20:28:00.772Z,38.80
2022-10-26T20:38:08.378Z,39.70
2022-10-26T20:48:15.270Z,48.00
2022-10-26T20:58:50.391Z,46.70
2022-10-26T21:08:57.747Z,49.00
2022-10-26T21:19:06.113Z,49.30
2022-10-26T21:29:12.367Z,46.00
2022-10-26T21:39:18.655Z,46.10
2022-10-26T21:49:24.895Z,49.90
2022-10-26T21:59:31.204Z,44.40
2022-10-26T22:09:45.040Z,40.40
2022-10-26T22:20:03.734Z,29.30
2022-10-26T22:30:10.488Z,37.20
2022-10-26T22:40:16.751Z,32.90
2022-10-26T22:50:23.019Z,26.90
2022-10-26T23:00:29.291Z,26.10
2022-10-26T23:10:35.542Z,26.50
2022-10-26T23:20:42.253Z,28.70
2022-10-26T23:30:48.900Z,28.20
2022-10-26T23:40:57.867Z,25.60
2022-10-26T23:51:04.135Z,27.40
